createdAt,value
2018-07-21T00:00:42.894Z,6.53
2018-07-21T00:03:53.370Z,8.58
2018-07-21T00:07:04.151Z,7.50
2018-07-21T00:10:14.888Z,6.60
2018-07-21T00:13:24.756Z,7.87
2018-07-21T00:16:35.506Z,8.35
2018-07-21T00:19:45.444Z,6.60
2018-07-21T00:22:55.118Z,7.00
2018-07-21T00:26:05.917Z,7.53
2018-07-21T00:29:15.910Z,8.70
2018-07-21T00:32:25.952Z,8.40
2018-07-21T00:35:36.835Z,8.43
2018-07-21T00:38:46.889Z,8.33
2018-07-21T00:41:57.694Z,9.28
2018-07-21T00:45:08.584Z,8.58
2018-07-21T00:48:19.295Z,6.78
2018-07-21T00:51:29.460Z,8.93
2018-07-21T00:54:41.226Z,8.50
2018-07-21T00:57:52.200Z,8.45
2018-07-21T01:01:02.563Z,7.90
2018-07-21T01:04:13.589Z,6.75
2018-07-21T01:07:24.153Z,7.47
2018-07-21T01:10:34.722Z,9.65
2018-07-21T01:13:44.784Z,7.45
2018-07-21T01:16:55.415Z,8.25
2018-07-21T01:20:06.707Z,8.60
2018-07-21T01:23:17.115Z,12.70
2018-07-21T01:26:27.347Z,9.58
2018-07-21T01:29:38.110Z,10.35
2018-07-21T01:32:47.954Z,9.48
2018-07-21T01:35:58.210Z,9.03
2018-07-21T01:39:10.567Z,9.13
2018-07-21T01:42:20.649Z,10.00
2018-07-21T01:45:31.217Z,7.12
2018-07-21T01:48:41.727Z,9.50
2018-07-21T01:51:51.883Z,9.15
2018-07-21T01:55:02.691Z,8.50
2018-07-21T01:58:13.524Z,8.75
2018-07-21T02:01:24.142Z,7.55
2018-07-21T02:04:34.618Z,8.38
2018-07-21T02:07:45.028Z,7.70
2018-07-21T02:10:54.814Z,8.40
2018-07-21T02:14:04.854Z,6.95
2018-07-21T02:17:15.600Z,10.70
2018-07-21T02:20:26.445Z,8.78
2018-07-21T02:23:37.228Z,9.05
2018-07-21T02:26:48.046Z,10.60
2018-07-21T02:29:58.777Z,9.85
2018-07-21T02:33:09.415Z,11.50
2018-07-21T02:36:19.235Z,9.25
2018-07-21T02:39:29.870Z,8.08
2018-07-21T02:42:40.039Z,7.97
2018-07-21T02:45:50.733Z,10.82
2018-07-21T02:49:00.881Z,9.23
2018-07-21T02:52:11.500Z,8.23
2018-07-21T02:55:22.243Z,9.60
2018-07-21T02:58:32.987Z,8.90
2018-07-21T03:01:43.102Z,9.35
2018-07-21T03:04:53.369Z,8.55
2018-07-21T03:08:03.207Z,8.33
2018-07-21T03:11:13.080Z,7.70
2018-07-21T03:14:23.963Z,11.12
2018-07-21T03:17:34.139Z,8.53
2018-07-21T03:20:44.890Z,9.90
2018-07-21T03:23:55.164Z,7.70
2018-07-21T03:27:05.907Z,9.63
2018-07-21T03:30:17.023Z,9.35
2018-07-21T03:33:27.709Z,7.75
2018-07-21T03:36:37.710Z,7.25
2018-07-21T03:39:47.666Z,8.03
2018-07-21T03:42:57.537Z,11.57
2018-07-21T03:46:08.423Z,8.70
2018-07-21T03:49:19.160Z,6.78
2018-07-21T03:52:30.048Z,8.63
2018-07-21T03:55:40.063Z,8.70
2018-07-21T03:58:49.658Z,7.90
2018-07-21T04:01:59.822Z,6.62
2018-07-21T04:05:11.030Z,8.13
2018-07-21T04:08:20.991Z,9.00
2018-07-21T04:11:30.920Z,9.30
2018-07-21T04:14:40.737Z,8.05
2018-07-21T04:17:51.015Z,9.33
2018-07-21T04:21:01.876Z,10.13
2018-07-21T04:24:12.683Z,9.33
2018-07-21T04:27:23.383Z,7.12
2018-07-21T04:30:33.659Z,7.75
2018-07-21T04:33:43.637Z,7.62
2018-07-21T04:36:53.478Z,7.60
2018-07-21T04:40:04.314Z,6.15
2018-07-21T04:43:14.960Z,8.35
2018-07-21T04:46:24.973Z,6.80
2018-07-21T04:49:35.766Z,6.65
2018-07-21T04:52:46.440Z,7.53
2018-07-21T04:55:57.153Z,12.60
2018-07-21T04:59:09.434Z,8.63
2018-07-21T05:02:19.813Z,7.62
2018-07-21T05:05:30.546Z,12.05
2018-07-21T05:08:42.418Z,35.70
2018-07-21T05:11:55.897Z,57.45
2018-07-21T05:15:07.540Z,28.52
2018-07-21T05:18:18.165Z,18.27
2018-07-21T05:21:29.019Z,44.88
2018-07-21T05:24:39.531Z,77.47
2018-07-21T05:27:49.615Z,52.80
2018-07-21T05:31:00.468Z,11.85
2018-07-21T05:34:11.190Z,8.18
2018-07-21T05:37:21.377Z,8.08
2018-07-21T05:40:32.110Z,9.73
2018-07-21T05:43:42.735Z,6.83
2018-07-21T05:46:52.563Z,7.30
2018-07-21T05:50:03.419Z,7.62
2018-07-21T05:53:14.266Z,7.42
2018-07-21T05:56:25.115Z,7.20
2018-07-21T05:59:35.788Z,6.87
2018-07-21T06:02:47.040Z,8.18
2018-07-21T06:05:57.943Z,7.53
2018-07-21T06:09:10.367Z,9.35
2018-07-21T06:12:21.161Z,7.20
2018-07-21T06:15:31.212Z,9.60
2018-07-21T06:18:42.287Z,6.05
2018-07-21T06:21:52.757Z,8.25
2018-07-21T06:25:04.015Z,11.00
2018-07-21T06:28:14.530Z,10.03
2018-07-21T06:31:25.298Z,8.40
2018-07-21T06:34:35.295Z,12.35
2018-07-21T06:37:46.098Z,9.75
2018-07-21T06:40:56.799Z,8.38
2018-07-21T06:44:06.988Z,8.18
2018-07-21T06:47:18.166Z,10.70
2018-07-21T06:50:28.450Z,8.20
2018-07-21T06:53:39.482Z,8.40
2018-07-21T06:56:49.625Z,9.70
2018-07-21T06:59:59.272Z,7.67
2018-07-21T07:03:08.992Z,7.60
2018-07-21T07:06:19.435Z,8.23
2018-07-21T07:09:29.942Z,8.15
2018-07-21T07:12:40.390Z,7.83
2018-07-21T07:15:50.102Z,8.10
2018-07-21T07:18:59.926Z,7.60
2018-07-21T07:22:10.497Z,21.97
2018-07-21T07:25:20.439Z,7.27
2018-07-21T07:28:30.949Z,6.90
2018-07-21T07:31:40.826Z,7.73
2018-07-21T07:34:50.510Z,7.40
2018-07-21T07:38:00.781Z,6.70
2018-07-21T07:41:11.130Z,8.50
2018-07-21T07:44:22.598Z,8.57
2018-07-21T07:47:32.362Z,6.20
2018-07-21T07:50:42.345Z,9.90
2018-07-21T07:53:52.348Z,8.07
2018-07-21T07:57:02.975Z,10.13
2018-07-21T08:00:12.559Z,10.77
2018-07-21T08:03:22.948Z,10.83
2018-07-21T08:06:33.615Z,7.85
2018-07-21T08:09:44.564Z,11.43
2018-07-21T08:12:55.032Z,9.48
2018-07-21T08:16:06.648Z,7.05
2018-07-21T08:19:16.812Z,7.70
2018-07-21T08:22:27.620Z,8.15
2018-07-21T08:25:38.643Z,13.68
2018-07-21T08:28:49.342Z,8.53
2018-07-21T08:31:59.265Z,10.93
2018-07-21T08:35:09.515Z,8.60
2018-07-21T08:38:20.086Z,9.10
2018-07-21T08:41:30.935Z,9.33
2018-07-21T08:44:41.581Z,8.38
2018-07-21T08:47:51.571Z,8.08
2018-07-21T08:51:01.640Z,9.18
2018-07-21T08:54:12.391Z,8.98
2018-07-21T08:57:22.971Z,8.60
2018-07-21T09:00:34.006Z,11.08
2018-07-21T09:03:44.514Z,8.13
2018-07-21T09:06:55.607Z,6.90
2018-07-21T09:10:07.244Z,7.35
2018-07-21T09:13:17.334Z,7.95
2018-07-21T09:16:28.123Z,8.70
2018-07-21T09:19:38.904Z,10.10
2018-07-21T09:22:49.827Z,9.48
2018-07-21T09:26:00.619Z,8.13
2018-07-21T09:29:10.794Z,10.08
2018-07-21T09:32:21.351Z,9.20
2018-07-21T09:35:31.388Z,8.83
2018-07-21T09:38:42.167Z,9.58
2018-07-21T09:41:52.827Z,8.15
2018-07-21T09:45:03.140Z,12.70
2018-07-21T09:48:14.037Z,11.50
2018-07-21T09:51:24.652Z,9.83
2018-07-21T09:54:35.514Z,10.38
2018-07-21T09:57:46.206Z,10.38
2018-07-21T10:01:02.447Z,9.48
2018-07-21T10:04:12.445Z,10.58
2018-07-21T10:07:23.737Z,9.48
2018-07-21T10:10:34.355Z,11.08
2018-07-21T10:13:45.894Z,12.73
2018-07-21T10:16:56.112Z,9.85
2018-07-21T10:20:06.569Z,10.10
2018-07-21T10:23:17.317Z,10.23
2018-07-21T10:26:32.908Z,8.38
2018-07-21T10:29:43.756Z,10.48
2018-07-21T10:32:54.322Z,12.37
2018-07-21T10:36:05.162Z,10.68
2018-07-21T10:39:16.155Z,11.15
2018-07-21T10:42:26.584Z,8.88
2018-07-21T10:45:37.207Z,10.93
2018-07-21T10:48:47.329Z,11.12
2018-07-21T10:51:58.165Z,11.25
2018-07-21T10:55:08.523Z,13.13
2018-07-21T10:58:19.125Z,15.18
2018-07-21T11:01:29.273Z,11.10
2018-07-21T11:04:40.059Z,9.10
2018-07-21T11:07:50.472Z,9.20
2018-07-21T11:11:01.579Z,11.53
2018-07-21T11:14:12.235Z,12.98
2018-07-21T11:17:23.095Z,10.78
2018-07-21T11:20:33.280Z,11.68
2018-07-21T11:23:43.563Z,11.38
2018-07-21T11:26:53.873Z,12.15
2018-07-21T11:30:05.250Z,7.70
2018-07-21T11:33:15.285Z,11.93
2018-07-21T11:36:26.038Z,14.18
2018-07-21T11:39:36.965Z,12.55
2018-07-21T11:42:47.763Z,10.65
2018-07-21T11:45:57.870Z,10.60
2018-07-21T11:49:07.822Z,9.13
2018-07-21T11:52:17.672Z,8.63
2018-07-21T11:55:28.434Z,9.53
2018-07-21T11:58:38.562Z,10.82
2018-07-21T12:01:49.255Z,9.48
2018-07-21T12:05:00.362Z,9.15
2018-07-21T12:08:11.497Z,7.92
2018-07-21T12:11:21.944Z,8.98
2018-07-21T12:14:32.547Z,9.68
2018-07-21T12:17:43.307Z,11.15
2018-07-21T12:20:53.245Z,10.18
2018-07-21T12:24:03.259Z,9.45
2018-07-21T12:27:13.737Z,11.10
2018-07-21T12:30:23.886Z,12.58
2018-07-21T12:33:34.668Z,12.10
2018-07-21T12:36:45.535Z,14.47
2018-07-21T12:39:56.594Z,15.08
2018-07-21T12:43:07.693Z,13.95
2018-07-21T12:46:18.063Z,12.05
2018-07-21T12:49:28.989Z,11.35
2018-07-21T12:52:39.689Z,12.20
2018-07-21T12:55:49.632Z,12.68
2018-07-21T12:59:00.831Z,13.75
2018-07-21T13:02:11.562Z,14.20
2018-07-21T13:05:22.319Z,17.67
2018-07-21T13:08:33.947Z,10.20
2018-07-21T13:11:45.377Z,10.50
2018-07-21T13:14:55.778Z,12.10
2018-07-21T13:18:06.268Z,11.12
2018-07-21T13:21:16.295Z,9.70
2018-07-21T13:24:27.095Z,11.43
2018-07-21T13:27:38.220Z,9.25
2018-07-21T13:30:48.999Z,9.55
2018-07-21T13:34:00.128Z,8.55
2018-07-21T13:37:10.657Z,11.68
2018-07-21T13:40:21.046Z,7.83
2018-07-21T13:43:31.383Z,9.30
2018-07-21T13:46:41.691Z,7.10
2018-07-21T13:49:52.381Z,10.65
2018-07-21T13:53:02.946Z,10.65
2018-07-21T13:56:13.274Z,10.10
2018-07-21T13:59:23.971Z,8.30
2018-07-21T14:02:34.253Z,14.38
2018-07-21T14:05:45.613Z,8.50
2018-07-21T14:08:55.956Z,8.98
2018-07-21T14:12:06.914Z,8.98
2018-07-21T14:15:17.338Z,7.60
2018-07-21T14:18:28.396Z,9.25
2018-07-21T14:21:38.597Z,10.50
2018-07-21T14:24:49.191Z,7.35
2018-07-21T14:28:00.632Z,9.68
2018-07-21T14:31:10.964Z,9.35
2018-07-21T14:34:21.096Z,12.90
2018-07-21T14:37:32.078Z,8.05
2018-07-21T14:40:45.503Z,8.80
2018-07-21T14:43:55.699Z,10.82
2018-07-21T14:47:06.522Z,10.15
2018-07-21T14:50:17.923Z,11.20
2018-07-21T14:53:28.640Z,10.32
2018-07-21T14:56:38.574Z,11.53
2018-07-21T14:59:49.367Z,10.43
2018-07-21T15:02:59.611Z,10.63
2018-07-21T15:06:10.471Z,10.58
2018-07-21T15:09:21.523Z,9.83
2018-07-21T15:12:32.258Z,9.75
2018-07-21T15:15:43.660Z,8.98
2018-07-21T15:18:54.529Z,8.75
2018-07-21T15:22:05.588Z,11.33
2018-07-21T15:25:15.907Z,10.53
2018-07-21T15:28:26.454Z,10.53
2018-07-21T15:31:36.907Z,12.43
2018-07-21T15:34:48.940Z,10.98
2018-07-21T15:37:59.642Z,10.75
2018-07-21T15:41:10.757Z,11.40
2018-07-21T15:44:20.962Z,10.10
2018-07-21T15:47:32.010Z,11.97
2018-07-21T15:50:42.278Z,10.03
2018-07-21T15:53:52.268Z,8.93
2018-07-21T15:57:02.213Z,9.50
2018-07-21T16:00:12.226Z,9.60
2018-07-21T16:03:22.799Z,11.30
2018-07-21T16:06:32.967Z,11.30
2018-07-21T16:09:44.054Z,10.77
2018-07-21T16:12:55.952Z,10.50
2018-07-21T16:16:06.401Z,10.28
2018-07-21T16:19:17.140Z,11.70
2018-07-21T16:22:27.489Z,13.83
2018-07-21T16:25:38.407Z,10.85
2018-07-21T16:28:49.370Z,11.68
2018-07-21T16:32:00.055Z,10.60
2018-07-21T16:35:11.041Z,10.23
2018-07-21T16:38:21.351Z,10.23
2018-07-21T16:41:32.452Z,12.07
2018-07-21T16:44:42.803Z,10.47
2018-07-21T16:47:52.548Z,10.50
2018-07-21T16:51:02.547Z,12.63
2018-07-21T16:54:12.998Z,8.87
2018-07-21T16:57:22.924Z,11.93
2018-07-21T17:00:33.008Z,11.55
2018-07-21T17:03:44.532Z,12.25
2018-07-21T17:06:54.520Z,8.45
2018-07-21T17:10:06.593Z,9.58
2018-07-21T17:13:18.395Z,9.20
2018-07-21T17:16:30.074Z,12.35
2018-07-21T17:19:39.959Z,12.55
2018-07-21T17:22:51.799Z,12.88
2018-07-21T17:26:02.564Z,12.80
2018-07-21T17:29:14.218Z,12.88
2018-07-21T17:32:27.231Z,11.68
2018-07-21T17:35:38.592Z,12.75
2018-07-21T17:38:49.809Z,11.80
2018-07-21T17:41:59.989Z,12.73
2018-07-21T17:45:11.020Z,13.75
2018-07-21T17:48:21.715Z,9.48
2018-07-21T17:51:32.922Z,10.40
2018-07-21T17:54:43.013Z,11.37
2018-07-21T17:57:53.325Z,10.70
2018-07-21T18:01:03.899Z,10.70
2018-07-21T18:04:14.346Z,12.30
2018-07-21T18:07:25.315Z,11.05
2018-07-21T18:10:36.041Z,9.57
2018-07-21T18:13:46.997Z,13.90
2018-07-21T18:16:57.541Z,12.47
2018-07-21T18:20:08.388Z,10.85
2018-07-21T18:23:18.926Z,9.28
2018-07-21T18:26:29.518Z,10.90
2018-07-21T18:29:40.198Z,12.00
2018-07-21T18:32:51.033Z,9.83
2018-07-21T18:36:01.720Z,11.30
2018-07-21T18:39:12.666Z,10.37
2018-07-21T18:42:23.558Z,12.15
2018-07-21T18:45:33.314Z,11.63
2018-07-21T18:48:43.911Z,14.20
2018-07-21T18:51:53.961Z,11.20
2018-07-21T18:55:04.024Z,11.63
2018-07-21T18:58:14.933Z,10.85
2018-07-21T19:01:25.055Z,11.90
2018-07-21T19:04:35.815Z,14.15
2018-07-21T19:07:46.536Z,14.70
2018-07-21T19:10:57.854Z,14.58
2018-07-21T19:14:08.114Z,15.93
2018-07-21T19:17:18.169Z,14.47
2018-07-21T19:20:33.995Z,12.13
2018-07-21T19:23:45.214Z,14.05
2018-07-21T19:28:00.710Z,14.70
2018-07-21T19:31:11.316Z,14.10
2018-07-21T19:34:21.989Z,12.25
2018-07-21T19:37:37.248Z,14.35
2018-07-21T19:40:47.396Z,13.50
2018-07-21T19:43:58.185Z,15.98
2018-07-21T19:47:08.986Z,14.00
2018-07-21T19:50:19.555Z,11.95
2018-07-21T19:53:29.622Z,11.78
2018-07-21T19:56:39.916Z,11.83
2018-07-21T19:59:50.909Z,17.42
2018-07-21T20:03:01.678Z,19.10
2018-07-21T20:06:12.747Z,16.17
2018-07-21T20:09:23.243Z,14.45
2018-07-21T20:12:34.313Z,17.57
2018-07-21T20:15:44.712Z,19.27
2018-07-21T20:18:55.243Z,17.67
2018-07-21T20:22:05.816Z,17.70
2018-07-21T20:25:15.915Z,15.35
2018-07-21T20:28:26.577Z,14.85
2018-07-21T20:31:37.359Z,17.45
2018-07-21T20:34:48.066Z,16.23
2018-07-21T20:37:57.958Z,14.93
2018-07-21T20:41:08.639Z,16.32
2018-07-21T20:44:19.497Z,16.25
2018-07-21T20:47:30.276Z,17.70
2018-07-21T20:50:41.428Z,16.85
2018-07-21T20:53:52.043Z,14.28
2018-07-21T20:57:02.792Z,23.77
2018-07-21T21:00:13.201Z,16.27
2018-07-21T21:03:23.500Z,19.15
2018-07-21T21:06:33.850Z,16.40
2018-07-21T21:09:44.498Z,22.82
2018-07-21T21:12:54.910Z,18.35
2018-07-21T21:16:05.139Z,19.45
2018-07-21T21:19:15.178Z,20.37
2018-07-21T21:22:25.739Z,22.82
2018-07-21T21:25:36.575Z,19.80
2018-07-21T21:28:47.307Z,22.20
2018-07-21T21:31:57.918Z,21.65
2018-07-21T21:35:08.741Z,21.35
2018-07-21T21:38:19.543Z,19.05
2018-07-21T21:41:30.242Z,17.17
2018-07-21T21:44:40.276Z,16.15
2018-07-21T21:47:51.015Z,17.00
2018-07-21T21:51:01.825Z,18.52
2018-07-21T21:54:12.158Z,14.10
2018-07-21T21:57:22.794Z,15.30
2018-07-21T22:00:59.526Z,17.67
2018-07-21T22:04:09.963Z,14.93
2018-07-21T22:07:20.125Z,16.87
2018-07-21T22:10:30.015Z,15.30
2018-07-21T22:13:40.907Z,16.67
2018-07-21T22:16:51.537Z,14.83
2018-07-21T22:20:02.161Z,18.12
2018-07-21T22:23:12.804Z,15.78
2018-07-21T22:26:22.791Z,16.52
2018-07-21T22:29:33.454Z,17.20
2018-07-21T22:32:43.519Z,20.88
2018-07-21T22:35:53.654Z,18.65
2018-07-21T22:39:06.856Z,17.48
2018-07-21T22:42:17.274Z,16.37
2018-07-21T22:45:28.463Z,16.95
2018-07-21T22:48:38.804Z,19.95
2018-07-21T22:51:49.571Z,17.67
2018-07-21T22:54:59.653Z,19.05
2018-07-21T22:58:09.442Z,19.23
2018-07-21T23:01:19.507Z,16.40
2018-07-21T23:04:30.311Z,19.82
2018-07-21T23:07:40.392Z,20.23
2018-07-21T23:10:51.149Z,18.77
2018-07-21T23:14:02.324Z,18.82
2018-07-21T23:17:12.731Z,20.40
2018-07-21T23:20:22.624Z,18.62
2018-07-21T23:23:32.622Z,18.85
2018-07-21T23:26:43.552Z,16.32
2018-07-21T23:29:54.014Z,22.15
2018-07-21T23:33:06.166Z,18.17
2018-07-21T23:36:16.584Z,18.30
2018-07-21T23:39:27.383Z,18.30
2018-07-21T23:42:38.251Z,17.80
2018-07-21T23:45:49.267Z,19.95
2018-07-21T23:48:59.162Z,20.65
2018-07-21T23:52:10.380Z,20.02
2018-07-21T23:55:39.859Z,20.70
2018-07-21T23:58:49.797Z,18.90
